X  Zamknij Lotniskowe dane METAR     EDHL Lübeck Blankensee Airport
Temperatura
15°C Temperatura
11°C Punkt rosy
77% Wilgotność



Wiatr
14 KM/H
9 MPH
4 M/S
8 KTS



270°
W
Warunki bieżące

Lekkie zachmurzenie Lekkie zachmurzenie
Ciśnienie 1015.92 (hPa) - 30 (inHg)
Widoczność 6 (mil) - 9.7 (km)
Lotnisko
Kod lotniska EDHL

Położenie: Lübeck Blankensee Airport
Odległość: 78 (km)

Metar:
EDHL 281220Z 27008KT 190V310 9999 SCT016 15/11 Q1016

Czas: 28-05-2024 12:20 CEST